sensor_id;sensor_type;location;lat;lon;timestamp;P1;durP1;ratioP1;P2;durP2;ratioP2
45940;SDS011;31858;46.008;8.978;2024-03-02T00:03:53;1.50;;;1.40;;
45940;SDS011;31858;46.008;8.978;2024-03-02T00:13:54;0.90;;;0.90;;
45940;SDS011;31858;46.008;8.978;2024-03-02T00:23:57;1.02;;;0.95;;
45940;SDS011;31858;46.008;8.978;2024-03-02T00:33:59;0.70;;;0.70;;
45940;SDS011;31858;46.008;8.978;2024-03-02T00:44:07;1.13;;;0.90;;
45940;SDS011;31858;46.008;8.978;2024-03-02T00:54:13;0.70;;;0.70;;
45940;SDS011;31858;46.008;8.978;2024-03-02T01:04:16;0.90;;;0.90;;
45940;SDS011;31858;46.008;8.978;2024-03-02T01:14:18;1.25;;;1.15;;
45940;SDS011;31858;46.008;8.978;2024-03-02T01:24:21;1.00;;;1.00;;
45940;SDS011;31858;46.008;8.978;2024-03-02T01:34:22;1.15;;;1.10;;
45940;SDS011;31858;46.008;8.978;2024-03-02T01:44:26;2.17;;;0.70;;
45940;SDS011;31858;46.008;8.978;2024-03-02T01:54:27;1.33;;;1.10;;
45940;SDS011;31858;46.008;8.978;2024-03-02T02:04:30;0.70;;;0.70;;
45940;SDS011;31858;46.008;8.978;2024-03-02T02:14:33;1.55;;;1.15;;
45940;SDS011;31858;46.008;8.978;2024-03-02T02:24:36;1.40;;;1.30;;
45940;SDS011;31858;46.008;8.978;2024-03-02T02:34:41;2.45;;;1.35;;
45940;SDS011;31858;46.008;8.978;2024-03-02T02:44:43;2.08;;;1.10;;
45940;SDS011;31858;46.008;8.978;2024-03-02T02:54:45;2.13;;;1.58;;
45940;SDS011;31858;46.008;8.978;2024-03-02T03:04:48;1.23;;;1.13;;
45940;SDS011;31858;46.008;8.978;2024-03-02T03:14:49;1.10;;;1.00;;
45940;SDS011;31858;46.008;8.978;2024-03-02T03:24:53;3.45;;;0.90;;
45940;SDS011;31858;46.008;8.978;2024-03-02T03:34:54;0.55;;;0.55;;
45940;SDS011;31858;46.008;8.978;2024-03-02T03:44:57;0.50;;;0.50;;
45940;SDS011;31858;46.008;8.978;2024-03-02T03:54:59;0.85;;;0.52;;
45940;SDS011;31858;46.008;8.978;2024-03-02T04:05:02;1.50;;;1.40;;
45940;SDS011;31858;46.008;8.978;2024-03-02T04:15:08;0.60;;;0.60;;
45940;SDS011;31858;46.008;8.978;2024-03-02T04:25:13;4.28;;;0.60;;
45940;SDS011;31858;46.008;8.978;2024-03-02T04:35:14;1.10;;;0.98;;
45940;SDS011;31858;46.008;8.978;2024-03-02T04:45:17;1.35;;;0.93;;
45940;SDS011;31858;46.008;8.978;2024-03-02T04:55:19;6.90;;;3.65;;
45940;SDS011;31858;46.008;8.978;2024-03-02T05:05:52;1.50;;;1.30;;
45940;SDS011;31858;46.008;8.978;2024-03-02T05:15:53;1.38;;;1.27;;
45940;SDS011;31858;46.008;8.978;2024-03-02T05:25:56;2.03;;;1.92;;
45940;SDS011;31858;46.008;8.978;2024-03-02T05:35:58;1.70;;;1.60;;
45940;SDS011;31858;46.008;8.978;2024-03-02T05:46:01;2.20;;;2.10;;
45940;SDS011;31858;46.008;8.978;2024-03-02T05:56:02;2.20;;;2.00;;
45940;SDS011;31858;46.008;8.978;2024-03-02T06:06:06;2.00;;;1.90;;
45940;SDS011;31858;46.008;8.978;2024-03-02T06:16:07;2.05;;;1.95;;
45940;SDS011;31858;46.008;8.978;2024-03-02T06:26:10;1.85;;;1.75;;
45940;SDS011;31858;46.008;8.978;2024-03-02T06:36:12;2.50;;;1.70;;
45940;SDS011;31858;46.008;8.978;2024-03-02T06:46:17;1.60;;;1.50;;
45940;SDS011;31858;46.008;8.978;2024-03-02T06:56:18;1.23;;;1.23;;
45940;SDS011;31858;46.008;8.978;2024-03-02T07:06:21;1.70;;;1.60;;
45940;SDS011;31858;46.008;8.978;2024-03-02T07:16:23;1.13;;;1.05;;
45940;SDS011;31858;46.008;8.978;2024-03-02T07:26:31;1.20;;;1.10;;
45940;SDS011;31858;46.008;8.978;2024-03-02T07:36:32;1.73;;;1.20;;
45940;SDS011;31858;46.008;8.978;2024-03-02T07:46:37;1.70;;;1.60;;
45940;SDS011;31858;46.008;8.978;2024-03-02T07:56:39;1.80;;;1.70;;
45940;SDS011;31858;46.008;8.978;2024-03-02T08:06:42;2.63;;;2.40;;
45940;SDS011;31858;46.008;8.978;2024-03-02T08:16:44;2.47;;;2.28;;
45940;SDS011;31858;46.008;8.978;2024-03-02T08:26:48;3.60;;;3.30;;
45940;SDS011;31858;46.008;8.978;2024-03-02T08:36:49;2.03;;;1.92;;
45940;SDS011;31858;46.008;8.978;2024-03-02T08:46:52;1.88;;;1.77;;
45940;SDS011;31858;46.008;8.978;2024-03-02T08:56:54;2.42;;;1.88;;
45940;SDS011;31858;46.008;8.978;2024-03-02T09:06:57;11.07;;;2.97;;
45940;SDS011;31858;46.008;8.978;2024-03-02T09:16:58;23.48;;;3.58;;
45940;SDS011;31858;46.008;8.978;2024-03-02T09:27:01;4.03;;;2.70;;
45940;SDS011;31858;46.008;8.978;2024-03-02T09:37:03;2.30;;;2.20;;
45940;SDS011;31858;46.008;8.978;2024-03-02T09:47:07;2.83;;;2.60;;
45940;SDS011;31858;46.008;8.978;2024-03-02T09:57:09;3.17;;;2.88;;
45940;SDS011;31858;46.008;8.978;2024-03-02T10:07:13;3.15;;;2.95;;
45940;SDS011;31858;46.008;8.978;2024-03-02T10:17:17;34.97;;;3.90;;
45940;SDS011;31858;46.008;8.978;2024-03-02T10:27:22;3.40;;;3.10;;
45940;SDS011;31858;46.008;8.978;2024-03-02T10:37:27;3.45;;;3.15;;
45940;SDS011;31858;46.008;8.978;2024-03-02T10:47:31;3.20;;;2.90;;
45940;SDS011;31858;46.008;8.978;2024-03-02T10:57:36;3.85;;;3.55;;
45940;SDS011;31858;46.008;8.978;2024-03-02T11:07:44;4.25;;;3.85;;
45940;SDS011;31858;46.008;8.978;2024-03-02T11:17:46;13.43;;;3.00;;
45940;SDS011;31858;46.008;8.978;2024-03-02T11:28:00;22.02;;;2.80;;
45940;SDS011;31858;46.008;8.978;2024-03-02T11:38:03;7.15;;;3.58;;
45940;SDS011;31858;46.008;8.978;2024-03-02T11:48:08;14.13;;;4.38;;
45940;SDS011;31858;46.008;8.978;2024-03-02T11:58:12;5.30;;;3.67;;
45940;SDS011;31858;46.008;8.978;2024-03-02T12:08:19;4.28;;;3.42;;
45940;SDS011;31858;46.008;8.978;2024-03-02T12:18:21;203.90;;;9.95;;
45940;SDS011;31858;46.008;8.978;2024-03-02T12:28:24;115.35;;;6.38;;
45940;SDS011;31858;46.008;8.978;2024-03-02T12:38:26;27.50;;;4.18;;
45940;SDS011;31858;46.008;8.978;2024-03-02T12:48:30;9.88;;;5.10;;
45940;SDS011;31858;46.008;8.978;2024-03-02T12:58:38;178.27;;;10.27;;
45940;SDS011;31858;46.008;8.978;2024-03-02T13:08:42;300.88;;;9.45;;
45940;SDS011;31858;46.008;8.978;2024-03-02T13:18:44;196.20;;;8.32;;
45940;SDS011;31858;46.008;8.978;2024-03-02T13:28:47;4.78;;;4.22;;
45940;SDS011;31858;46.008;8.978;2024-03-02T13:38:49;6.80;;;6.00;;
45940;SDS011;31858;46.008;8.978;2024-03-02T13:48:52;4.28;;;3.88;;
45940;SDS011;31858;46.008;8.978;2024-03-02T13:58:55;6.13;;;5.53;;
45940;SDS011;31858;46.008;8.978;2024-03-02T14:08:58;3.83;;;3.53;;
45940;SDS011;31858;46.008;8.978;2024-03-02T14:18:59;3.80;;;3.50;;
45940;SDS011;31858;46.008;8.978;2024-03-02T14:29:03;5.93;;;5.40;;
45940;SDS011;31858;46.008;8.978;2024-03-02T14:39:04;7.72;;;6.93;;
45940;SDS011;31858;46.008;8.978;2024-03-02T14:49:11;5.20;;;4.70;;
45940;SDS011;31858;46.008;8.978;2024-03-02T14:59:13;6.13;;;4.97;;
45940;SDS011;31858;46.008;8.978;2024-03-02T15:09:16;10.18;;;5.22;;
45940;SDS011;31858;46.008;8.978;2024-03-02T15:19:18;28.23;;;7.82;;
45940;SDS011;31858;46.008;8.978;2024-03-02T15:29:21;24.83;;;9.90;;
45940;SDS011;31858;46.008;8.978;2024-03-02T15:39:28;6.47;;;5.88;;
45940;SDS011;31858;46.008;8.978;2024-03-02T15:49:31;6.43;;;5.82;;
45940;SDS011;31858;46.008;8.978;2024-03-02T15:59:33;5.72;;;5.18;;
45940;SDS011;31858;46.008;8.978;2024-03-02T16:09:36;5.90;;;5.30;;
45940;SDS011;31858;46.008;8.978;2024-03-02T16:19:37;48.80;;;11.77;;
45940;SDS011;31858;46.008;8.978;2024-03-02T16:29:42;8.65;;;7.80;;
45940;SDS011;31858;46.008;8.978;2024-03-02T16:39:43;39.53;;;28.38;;
45940;SDS011;31858;46.008;8.978;2024-03-02T16:49:46;8.00;;;7.20;;
45940;SDS011;31858;46.008;8.978;2024-03-02T16:59:48;7.68;;;6.97;;
45940;SDS011;31858;46.008;8.978;2024-03-02T17:09:51;12.85;;;9.38;;
45940;SDS011;31858;46.008;8.978;2024-03-02T17:19:53;9.60;;;7.35;;
45940;SDS011;31858;46.008;8.978;2024-03-02T17:29:56;11.00;;;7.35;;
45940;SDS011;31858;46.008;8.978;2024-03-02T17:39:57;16.52;;;14.25;;
45940;SDS011;31858;46.008;8.978;2024-03-02T17:50:00;13.02;;;11.02;;
45940;SDS011;31858;46.008;8.978;2024-03-02T18:00:04;12.15;;;10.02;;
45940;SDS011;31858;46.008;8.978;2024-03-02T18:10:08;400.33;;;25.42;;
45940;SDS011;31858;46.008;8.978;2024-03-02T18:20:10;10.57;;;9.57;;
45940;SDS011;31858;46.008;8.978;2024-03-02T18:30:14;12.48;;;10.25;;
45940;SDS011;31858;46.008;8.978;2024-03-02T18:40:16;7.72;;;4.75;;
45940;SDS011;31858;46.008;8.978;2024-03-02T18:50:19;6.47;;;3.97;;
45940;SDS011;31858;46.008;8.978;2024-03-02T19:00:20;7.82;;;7.03;;
45940;SDS011;31858;46.008;8.978;2024-03-02T19:10:23;558.00;;;36.90;;
45940;SDS011;31858;46.008;8.978;2024-03-02T19:20:25;337.65;;;29.73;;
45940;SDS011;31858;46.008;8.978;2024-03-02T19:30:28;21.65;;;17.27;;
45940;SDS011;31858;46.008;8.978;2024-03-02T19:40:29;11.70;;;10.50;;
45940;SDS011;31858;46.008;8.978;2024-03-02T19:50:32;15.88;;;14.30;;
45940;SDS011;31858;46.008;8.978;2024-03-02T20:00:34;9.90;;;8.82;;
45940;SDS011;31858;46.008;8.978;2024-03-02T20:10:37;7.30;;;6.57;;
45940;SDS011;31858;46.008;8.978;2024-03-02T20:20:38;9.57;;;5.47;;
45940;SDS011;31858;46.008;8.978;2024-03-02T20:30:41;8.25;;;7.18;;
45940;SDS011;31858;46.008;8.978;2024-03-02T20:40:43;6.05;;;3.60;;
45940;SDS011;31858;46.008;8.978;2024-03-02T20:50:48;11.65;;;9.98;;
45940;SDS011;31858;46.008;8.978;2024-03-02T21:00:49;13.98;;;12.27;;
45940;SDS011;31858;46.008;8.978;2024-03-02T21:10:52;15.32;;;13.77;;
45940;SDS011;31858;46.008;8.978;2024-03-02T21:20:54;10.25;;;8.40;;
45940;SDS011;31858;46.008;8.978;2024-03-02T21:30:57;12.18;;;10.20;;
45940;SDS011;31858;46.008;8.978;2024-03-02T21:40:58;4.40;;;3.10;;
45940;SDS011;31858;46.008;8.978;2024-03-02T21:51:01;5.97;;;4.05;;
45940;SDS011;31858;46.008;8.978;2024-03-02T22:01:03;3.88;;;2.63;;
45940;SDS011;31858;46.008;8.978;2024-03-02T22:11:06;12.88;;;8.60;;
45940;SDS011;31858;46.008;8.978;2024-03-02T22:21:08;6.32;;;3.60;;
45940;SDS011;31858;46.008;8.978;2024-03-02T22:31:11;4.45;;;2.67;;
45940;SDS011;31858;46.008;8.978;2024-03-02T22:41:12;9.23;;;6.80;;
45940;SDS011;31858;46.008;8.978;2024-03-02T22:51:20;6.95;;;4.53;;
45940;SDS011;31858;46.008;8.978;2024-03-02T23:01:22;5.65;;;2.72;;
45940;SDS011;31858;46.008;8.978;2024-03-02T23:11:27;7.15;;;3.42;;
45940;SDS011;31858;46.008;8.978;2024-03-02T23:21:28;6.05;;;3.10;;
45940;SDS011;31858;46.008;8.978;2024-03-02T23:31:31;7.65;;;3.05;;
45940;SDS011;31858;46.008;8.978;2024-03-02T23:41:33;8.55;;;2.63;;
45940;SDS011;31858;46.008;8.978;2024-03-02T23:51:36;9.85;;;2.75;;
